Fairbanks, AK (99775)

7:03 PM AKDT on July 24, 2017 (GMT -0800)
Homestead | | Change Station

Elev 446 ft 64.86 °N, 147.78 °W | Updated 5 seconds ago

Overcast
Overcast
60.3 °F
Feels Like 60.3 °F
N
0.0
Wind Variable Wind from West

Today
High -- | Low -- °F
--% Chance of Precip.
Yesterday
High -- | Low -- °F
Precip. -- in
Pressure 29.97 in
Visibility 10.0 miles
Clouds Scattered Clouds 1800 ft
Mostly Cloudy 2200 ft
Mostly Cloudy 5500 ft
Dew Point 56 °F
Humidity 86%
Rainfall 0.18 in
Snow Depth Not available.
4:24 AM 11:28 PM
Waxing Crescent, 4% visible
METAR PAFA 250253Z 25008KT 10SM SCT018 BKN022 BKN055 15/12 A2995 RMK AO2 SLP147 T01500122 51001 $
Pressure 29.97 in
Visibility 10.0 miles
Clouds Scattered Clouds 1800 ft
Mostly Cloudy 2200 ft
Mostly Cloudy 5500 ft
Dew Point 56 °F
Humidity 86%
Rainfall 0.18 in
Snow Depth Not available.
4:24 AM 11:28 PM
Waxing Crescent, 4% visible
METAR PAFA 250253Z 25008KT 10SM SCT018 BKN022 BKN055 15/12 A2995 RMK AO2 SLP147 T01500122 51001 $

Get Severe Weather Alerts

Thanks for signing up!

Be on the lookout for a verification email in your inbox.

You'll start receiving the daily forecast at 6 AM.

×

10-Day Weather Forecast

Almanac

Astronomy

Jul. 24, 2017 Rise Set
Actual Time
Civil Twilight
Nautical Twilight
Astronomical Twilight
Moon
Length of Visible Light
Length of Day
Tomorrow will be .
, % of the Moon is Illuminated

Today's Extremes

State Highs State Lows

Community

WunderPhotos

Category 6

Welcome to Category 6. This is the collective home for Weather Underground's featured writeups by Dr. Jeff Masters (right), Bob Henson (left), Chris Burt, and other regular contributors.

Nearby

Air Quality

  Air Quality AQ Index Pollutant
Not available.

Snow Depth

Station Depth Elevation

Earthquake Activity

City Distance Mag. Time & Date
Minimum magnitude displayed is 2.5.

Coastal Water Temperatures

Place Temperature

Stations

Nearby Weather Stations

Station Location Temp. Windchill Dew Point Humidity Wind Precip. Elev Updated Type
                   

Watches & Warnings

There are currently no watches in effect.